Time;durP1;ratioP1;P1;durP2;ratioP2;P2;SDS_P1;SDS_P2;PMS_P1;PMS_P2;Temp;Humidity;BMP_temperature;BMP_pressure;BME280_temperature;BME280_humidity;BME280_pressure;Samples;Min_cycle;Max_cycle;Signal;HPM_P1;HPM_P2
2021/12/10 00:00:16;;;;;;;;;;;23.10;24.20;;;;;;5162577;27;20003;-47
2021/12/10 00:02:46;;;;;;;;;;;23.00;24.40;;;;;;5167984;27;19927;-47
2021/12/10 00:05:13;;;;;;;;;;;23.00;24.30;;;;;;5162614;27;19929;-45
2021/12/10 00:07:39;;;;;;;;;;;23.10;24.20;;;;;;5165996;27;19923;-56
2021/12/10 00:10:06;;;;;;;;;;;23.10;24.10;;;;;;5164732;27;20062;-46
2021/12/10 00:12:33;;;;;;;;;;;23.20;24.00;;;;;;5162800;27;20475;-56
2021/12/10 00:14:59;;;;;;;;;;;22.60;24.50;;;;;;5167911;27;19922;-51
2021/12/10 00:17:25;;;;;;;;;;;22.70;24.50;;;;;;5162430;27;20030;-52
2021/12/10 00:19:54;;;;;;;;;;;22.70;24.40;;;;;;5162181;27;19942;-49
2021/12/10 00:22:31;;;;;;;;;;;22.70;24.50;;;;;;5167234;27;19929;-51
2021/12/10 00:24:57;;;;;;;;;;;22.80;24.30;;;;;;5161919;27;19923;-49
2021/12/10 00:27:28;;;;;;;;;;;22.70;24.30;;;;;;5162190;27;19926;-50
2021/12/10 00:30:02;;;;;;;;;;;22.80;24.20;;;;;;5167916;27;19923;-49
2021/12/10 00:32:34;;;;;;;;;;;22.80;24.30;;;;;;5158544;27;19978;-46
2021/12/10 00:35:02;;;;;;;;;;;22.80;24.20;;;;;;5162361;27;19923;-49
2021/12/10 00:37:28;;;;;;;;;;;22.80;24.10;;;;;;5167374;27;20417;-51
2021/12/10 00:39:56;;;;;;;;;;;22.80;24.10;;;;;;5161931;27;19934;-47
2021/12/10 00:42:26;;;;;;;;;;;22.90;24.10;;;;;;5167474;27;20400;-48
2021/12/10 00:44:52;;;;;;;;;;;22.80;24.20;;;;;;5162175;27;20365;-46
2021/12/10 00:47:18;;;;;;;;;;;22.80;24.10;;;;;;5162406;27;19929;-48
2021/12/10 00:49:44;;;;;;;;;;;22.80;24.10;;;;;;5167527;27;19922;-48
2021/12/10 00:52:10;;;;;;;;;;;22.80;24.10;;;;;;5162024;27;19979;-47
2021/12/10 00:54:36;;;;;;;;;;;22.90;24.00;;;;;;5161778;27;20113;-51
2021/12/10 00:57:02;;;;;;;;;;;22.90;24.00;;;;;;5167061;27;20363;-46
2021/12/10 00:59:27;;;;;;;;;;;22.90;23.90;;;;;;5161537;27;20223;-48
2021/12/10 01:01:53;;;;;;;;;;;22.90;23.90;;;;;;5164234;27;19922;-55
2021/12/10 01:04:25;;;;;;;;;;;22.90;23.90;;;;;;5164652;27;20013;-48
2021/12/10 01:06:51;;;;;;;;;;;22.80;23.90;;;;;;5161997;27;19922;-47
2021/12/10 01:09:18;;;;;;;;;;;22.80;23.90;;;;;;5167098;27;19949;-46
2021/12/10 01:11:50;;;;;;;;;;;22.90;23.80;;;;;;5161784;27;20328;-47
2021/12/10 01:14:24;;;;;;;;;;;22.80;23.80;;;;;;5161457;27;20396;-49
2021/12/10 01:25:11;;;;;;;;;;;22.80;23.70;;;;;;5165854;27;20018;-51
2021/12/10 01:27:38;;;;;;;;;;;22.90;23.60;;;;;;5166218;27;19922;-47
2021/12/10 01:30:09;;;;;;;;;;;22.80;23.60;;;;;;5161503;27;19922;-49
2021/12/10 01:32:36;;;;;;;;;;;22.80;23.70;;;;;;5166755;27;19970;-46
2021/12/10 01:35:03;;;;;;;;;;;22.90;23.60;;;;;;5160897;27;19990;-46
2021/12/10 01:37:29;;;;;;;;;;;22.80;23.60;;;;;;5160889;27;19942;-45
2021/12/10 01:39:56;;;;;;;;;;;22.80;23.60;;;;;;5166103;27;19931;-45
2021/12/10 01:44:54;;;;;;;;;;;22.90;23.60;;;;;;5161191;27;20281;-45
2021/12/10 01:47:24;;;;;;;;;;;22.90;23.50;;;;;;5166643;27;20049;-44
2021/12/10 01:49:50;;;;;;;;;;;22.90;23.50;;;;;;5161184;27;19929;-45
2021/12/10 01:52:16;;;;;;;;;;;22.90;23.50;;;;;;5162491;27;19923;-52
2021/12/10 01:54:43;;;;;;;;;;;22.90;23.40;;;;;;5165047;27;20506;-46
2021/12/10 01:57:09;;;;;;;;;;;22.90;23.30;;;;;;5141915;27;20021;-45
2021/12/10 01:59:35;;;;;;;;;;;22.80;23.40;;;;;;5166388;27;19923;-45
2021/12/10 02:02:03;;;;;;;;;;;22.90;23.30;;;;;;5161311;27;20370;-45
2021/12/10 02:04:30;;;;;;;;;;;22.90;23.20;;;;;;5160763;27;19927;-46
2021/12/10 02:06:55;;;;;;;;;;;22.90;23.20;;;;;;5166453;27;19923;-46
2021/12/10 02:09:21;;;;;;;;;;;22.90;23.20;;;;;;5160689;27;20018;-44
2021/12/10 02:11:47;;;;;;;;;;;22.90;23.10;;;;;;5160519;27;19929;-45
2021/12/10 02:14:13;;;;;;;;;;;22.90;23.00;;;;;;5147468;27;19958;-46
2021/12/10 02:16:39;;;;;;;;;;;22.90;23.10;;;;;;5160027;27;19927;-46
2021/12/10 02:19:05;;;;;;;;;;;22.90;23.10;;;;;;5166349;27;19968;-45
2021/12/10 02:21:33;;;;;;;;;;;22.90;23.10;;;;;;5160685;27;19923;-45
2021/12/10 02:23:59;;;;;;;;;;;22.90;23.00;;;;;;5160529;27;19930;-47
2021/12/10 02:26:26;;;;;;;;;;;22.80;23.00;;;;;;5166069;27;20339;-47
2021/12/10 02:28:52;;;;;;;;;;;22.90;22.90;;;;;;5160349;27;19923;-48
2021/12/10 02:31:18;;;;;;;;;;;23.00;22.80;;;;;;5161806;27;20370;-46
2021/12/10 02:33:44;;;;;;;;;;;22.90;22.80;;;;;;5150821;27;19923;-44
2021/12/10 02:36:12;;;;;;;;;;;22.90;22.80;;;;;;5163743;27;19936;-44
2021/12/10 02:38:41;;;;;;;;;;;23.00;22.70;;;;;;5168006;27;20338;-51
2021/12/10 02:41:07;;;;;;;;;;;22.90;22.70;;;;;;5167652;27;20419;-45
2021/12/10 02:43:33;;;;;;;;;;;23.00;22.60;;;;;;5163917;27;19923;-46
2021/12/10 02:45:59;;;;;;;;;;;22.90;22.60;;;;;;5169116;27;19951;-46
2021/12/10 02:48:25;;;;;;;;;;;23.00;22.50;;;;;;5163599;27;19923;-46
2021/12/10 02:50:51;;;;;;;;;;;23.00;22.50;;;;;;5163410;27;20303;-43
2021/12/10 02:53:22;;;;;;;;;;;23.00;22.40;;;;;;5168701;27;19923;-50
2021/12/10 02:55:48;;;;;;;;;;;23.00;22.40;;;;;;5163710;27;20377;-48
2021/12/10 02:58:14;;;;;;;;;;;22.90;22.50;;;;;;5163841;27;19953;-47
2021/12/10 03:00:42;;;;;;;;;;;22.90;22.40;;;;;;5169028;27;19930;-47
2021/12/10 03:03:08;;;;;;;;;;;22.90;22.50;;;;;;5163549;27;20017;-49
2021/12/10 03:05:34;;;;;;;;;;;22.90;22.50;;;;;;5168797;27;20019;-45
2021/12/10 03:07:59;;;;;;;;;;;22.90;22.40;;;;;;5163344;27;19923;-45
2021/12/10 03:10:27;;;;;;;;;;;23.00;22.40;;;;;;5163224;27;19929;-43
2021/12/10 03:12:53;;;;;;;;;;;23.10;22.30;;;;;;5168418;27;19922;-52
2021/12/10 03:15:19;;;;;;;;;;;23.00;22.30;;;;;;5163560;27;19945;-47
2021/12/10 03:17:45;;;;;;;;;;;22.90;22.40;;;;;;5163396;27;20317;-48
2021/12/10 03:20:12;;;;;;;;;;;22.90;22.30;;;;;;5168781;27;19927;-47
2021/12/10 03:22:38;;;;;;;;;;;22.90;22.30;;;;;;5163238;27;20303;-48
2021/12/10 03:25:05;;;;;;;;;;;22.80;22.30;;;;;;5166943;27;19929;-50
2021/12/10 03:27:30;;;;;;;;;;;22.90;22.30;;;;;;5165309;27;19927;-44
2021/12/10 03:29:56;;;;;;;;;;;23.00;22.20;;;;;;5143680;27;19975;-47
2021/12/10 03:32:23;;;;;;;;;;;23.10;22.20;;;;;;5168314;27;19930;-44
2021/12/10 03:34:49;;;;;;;;;;;23.00;22.20;;;;;;5163132;27;20381;-47
2021/12/10 03:37:18;;;;;;;;;;;23.10;22.10;;;;;;5163222;27;20025;-46
2021/12/10 03:39:44;;;;;;;;;;;23.10;22.10;;;;;;5168582;27;19929;-44
2021/12/10 03:42:10;;;;;;;;;;;22.90;22.20;;;;;;5162344;27;20037;-46
2021/12/10 03:44:36;;;;;;;;;;;23.00;22.10;;;;;;5162612;27;19933;-46
2021/12/10 03:47:02;;;;;;;;;;;23.00;22.10;;;;;;5168170;27;19927;-49
2021/12/10 03:49:28;;;;;;;;;;;23.10;22.10;;;;;;5162322;27;20001;-46
2021/12/10 03:51:54;;;;;;;;;;;23.00;22.20;;;;;;5168668;27;19922;-45
2021/12/10 03:54:20;;;;;;;;;;;23.00;22.20;;;;;;5163041;27;19923;-45
2021/12/10 03:56:49;;;;;;;;;;;23.00;22.20;;;;;;5162713;27;19935;-44
2021/12/10 03:59:15;;;;;;;;;;;23.00;22.10;;;;;;5149472;27;19927;-50
2021/12/10 04:01:42;;;;;;;;;;;23.10;22.00;;;;;;5162323;27;19929;-51
2021/12/10 04:04:11;;;;;;;;;;;23.00;22.00;;;;;;5162164;27;19978;-48
2021/12/10 04:06:37;;;;;;;;;;;23.00;22.10;;;;;;5167675;27;20059;-46
2021/12/10 04:09:03;;;;;;;;;;;23.10;22.00;;;;;;5162219;27;20358;-45
2021/12/10 04:11:28;;;;;;;;;;;23.00;22.00;;;;;;5167719;27;20390;-54
2021/12/10 04:13:54;;;;;;;;;;;23.10;22.00;;;;;;5163361;27;19929;-45
2021/12/10 04:16:20;;;;;;;;;;;23.00;22.00;;;;;;5162659;27;19927;-48
2021/12/10 04:18:47;;;;;;;;;;;23.00;22.10;;;;;;5167669;27;19922;-47
2021/12/10 04:21:13;;;;;;;;;;;22.90;22.10;;;;;;5161925;27;19931;-44
2021/12/10 04:23:41;;;;;;;;;;;22.90;22.00;;;;;;5162077;27;20009;-45
2021/12/10 04:26:11;;;;;;;;;;;23.00;21.90;;;;;;5167270;27;19923;-48
2021/12/10 04:28:36;;;;;;;;;;;23.00;21.90;;;;;;5162537;27;20020;-50
2021/12/10 04:31:02;;;;;;;;;;;22.90;21.90;;;;;;5162311;27;19930;-48
2021/12/10 04:33:28;;;;;;;;;;;22.90;22.00;;;;;;5167517;27;20297;-46
2021/12/10 04:35:54;;;;;;;;;;;22.90;22.00;;;;;;5162053;27;19926;-49
2021/12/10 04:38:20;;;;;;;;;;;23.00;21.90;;;;;;5167413;27;20017;-46
2021/12/10 04:40:47;;;;;;;;;;;23.00;21.90;;;;;;5161866;27;20423;-51
2021/12/10 04:43:14;;;;;;;;;;;23.00;21.80;;;;;;5161911;27;20425;-45
2021/12/10 04:45:40;;;;;;;;;;;23.10;21.80;;;;;;5167180;27;19926;-46
2021/12/10 04:48:06;;;;;;;;;;;23.10;21.80;;;;;;5162394;27;19923;-47
2021/12/10 04:50:31;;;;;;;;;;;22.90;21.90;;;;;;5162025;27;19942;-46
2021/12/10 04:52:57;;;;;;;;;;;22.90;21.80;;;;;;5166929;27;20389;-45
2021/12/10 04:55:23;;;;;;;;;;;22.90;21.80;;;;;;5161386;27;19927;-49
2021/12/10 04:57:49;;;;;;;;;;;22.90;21.70;;;;;;5167077;27;20290;-44
2021/12/10 05:00:16;;;;;;;;;;;23.10;21.60;;;;;;5161613;27;19933;-43
2021/12/10 05:02:44;;;;;;;;;;;23.10;21.60;;;;;;5161337;27;19923;-47
2021/12/10 05:05:10;;;;;;;;;;;23.10;21.60;;;;;;5167236;27;19923;-47
2021/12/10 05:07:37;;;;;;;;;;;22.90;21.80;;;;;;5162095;27;20029;-47
2021/12/10 05:10:07;;;;;;;;;;;23.00;21.70;;;;;;5161701;27;20138;-45
2021/12/10 05:12:32;;;;;;;;;;;22.90;21.80;;;;;;5167220;27;20021;-47
2021/12/10 05:15:00;;;;;;;;;;;23.00;21.70;;;;;;5161409;27;19923;-42
2021/12/10 05:17:28;;;;;;;;;;;23.00;21.70;;;;;;5162341;27;20297;-51
2021/12/10 05:19:54;;;;;;;;;;;23.00;21.70;;;;;;5166764;27;19932;-45
2021/12/10 05:22:20;;;;;;;;;;;23.00;21.70;;;;;;5160843;27;19983;-46
2021/12/10 05:24:46;;;;;;;;;;;23.00;21.70;;;;;;5148356;27;19934;-46
2021/12/10 05:27:12;;;;;;;;;;;23.00;21.70;;;;;;5161437;27;20336;-45
2021/12/10 05:29:37;;;;;;;;;;;22.90;21.80;;;;;;5161222;27;19945;-46
2021/12/10 05:32:05;;;;;;;;;;;23.00;21.70;;;;;;5166862;27;19926;-47
2021/12/10 05:34:30;;;;;;;;;;;22.90;21.80;;;;;;5161213;27;19927;-46
2021/12/10 05:36:57;;;;;;;;;;;22.90;21.70;;;;;;5161025;27;20161;-45
2021/12/10 05:39:23;;;;;;;;;;;23.00;21.70;;;;;;5166473;27;19940;-45
2021/12/10 05:41:50;;;;;;;;;;;22.90;21.70;;;;;;5160911;27;20285;-44
2021/12/10 05:44:16;;;;;;;;;;;23.00;21.70;;;;;;5167041;27;19927;-44
2021/12/10 05:46:41;;;;;;;;;;;23.10;21.60;;;;;;5161340;27;19930;-47
2021/12/10 05:49:07;;;;;;;;;;;23.00;21.60;;;;;;5161327;27;19938;-45
2021/12/10 05:51:33;;;;;;;;;;;23.10;21.60;;;;;;5166516;27;19964;-45
2021/12/10 05:53:59;;;;;;;;;;;23.00;21.60;;;;;;5160919;27;19991;-46
2021/12/10 05:56:25;;;;;;;;;;;23.10;21.70;;;;;;5160879;27;19927;-45
2021/12/10 05:58:51;;;;;;;;;;;23.00;21.60;;;;;;5165787;27;19950;-43
2021/12/10 06:01:17;;;;;;;;;;;23.00;21.60;;;;;;5161260;27;19931;-45
2021/12/10 06:03:51;;;;;;;;;;;23.10;21.50;;;;;;5166679;27;20425;-50
2021/12/10 06:06:17;;;;;;;;;;;23.20;21.40;;;;;;5167883;27;20038;-46
2021/12/10 06:08:43;;;;;;;;;;;23.10;21.40;;;;;;5164536;27;20021;-43
2021/12/10 06:11:08;;;;;;;;;;;23.10;21.50;;;;;;5169719;27;20011;-47
2021/12/10 06:13:34;;;;;;;;;;;23.10;21.50;;;;;;5164316;27;19930;-47
2021/12/10 06:16:00;;;;;;;;;;;23.20;21.50;;;;;;5164695;27;19974;-55
2021/12/10 06:18:26;;;;;;;;;;;23.00;21.60;;;;;;5169456;27;19967;-52
2021/12/10 06:20:52;;;;;;;;;;;22.70;22.00;;;;;;5164169;27;20422;-50
2021/12/10 06:23:18;;;;;;;;;;;22.60;22.10;;;;;;5164205;27;19950;-56
2021/12/10 06:25:44;;;;;;;;;;;22.50;22.20;;;;;;5169897;27;20859;-53
2021/12/10 06:28:09;;;;;;;;;;;22.60;22.10;;;;;;5164071;27;20425;-50
2021/12/10 06:30:37;;;;;;;;;;;22.40;22.30;;;;;;5169568;27;19922;-50
2021/12/10 06:33:03;;;;;;;;;;;22.50;22.20;;;;;;5163934;27;19922;-51
2021/12/10 06:35:29;;;;;;;;;;;22.40;22.20;;;;;;5163681;27;20002;-52
2021/12/10 06:37:55;;;;;;;;;;;22.40;22.20;;;;;;5169510;27;19966;-49
2021/12/10 06:40:22;;;;;;;;;;;22.40;22.20;;;;;;5164350;27;20292;-49
2021/12/10 06:42:48;;;;;;;;;;;22.50;22.20;;;;;;5164173;27;20077;-48
2021/12/10 06:45:14;;;;;;;;;;;22.50;22.20;;;;;;5169488;27;19930;-49
2021/12/10 06:47:44;;;;;;;;;;;22.50;22.20;;;;;;5163616;27;19930;-50
2021/12/10 06:50:10;;;;;;;;;;;22.50;22.20;;;;;;5168901;27;20300;-52
2021/12/10 06:52:36;;;;;;;;;;;22.50;22.20;;;;;;5163976;27;19922;-48
2021/12/10 06:55:02;;;;;;;;;;;22.50;22.20;;;;;;5163163;27;19967;-47
2021/12/10 06:57:28;;;;;;;;;;;22.50;22.10;;;;;;5169558;27;20856;-48
2021/12/10 06:59:55;;;;;;;;;;;22.50;22.20;;;;;;5164002;27;19923;-48
2021/12/10 07:02:21;;;;;;;;;;;22.50;22.20;;;;;;5163818;27;20304;-47
2021/12/10 07:04:47;;;;;;;;;;;22.50;22.20;;;;;;5169132;27;19923;-48
2021/12/10 07:07:12;;;;;;;;;;;22.50;22.10;;;;;;5163418;27;19926;-48
2021/12/10 07:09:38;;;;;;;;;;;22.50;22.10;;;;;;5165964;27;19949;-56
2021/12/10 07:12:04;;;;;;;;;;;22.40;22.20;;;;;;5166733;27;19971;-48
2021/12/10 07:14:30;;;;;;;;;;;22.40;22.20;;;;;;5163427;27;20356;-50
2021/12/10 07:16:56;;;;;;;;;;;22.50;22.20;;;;;;5168469;27;19992;-49
2021/12/10 07:19:22;;;;;;;;;;;22.50;22.10;;;;;;5163676;27;19922;-46
2021/12/10 07:21:48;;;;;;;;;;;22.50;22.20;;;;;;5163408;27;19933;-48
2021/12/10 07:24:14;;;;;;;;;;;22.50;22.10;;;;;;5168648;27;19930;-46
2021/12/10 07:26:40;;;;;;;;;;;22.30;22.30;;;;;;5163125;27;20301;-50
2021/12/10 07:29:06;;;;;;;;;;;22.50;22.10;;;;;;5163138;27;19926;-52
2021/12/10 07:31:32;;;;;;;;;;;22.40;22.20;;;;;;5149449;27;19937;-47
2021/12/10 07:33:58;;;;;;;;;;;22.50;22.20;;;;;;5163349;27;19927;-49
2021/12/10 07:36:24;;;;;;;;;;;22.50;22.20;;;;;;5168819;27;19941;-46
2021/12/10 07:38:50;;;;;;;;;;;22.40;22.20;;;;;;5163069;27;19933;-49
2021/12/10 07:41:16;;;;;;;;;;;22.40;22.20;;;;;;5162821;27;20372;-46
2021/12/10 07:43:42;;;;;;;;;;;22.50;22.20;;;;;;5168307;27;19927;-48
2021/12/10 07:46:08;;;;;;;;;;;22.40;22.20;;;;;;5162716;27;19929;-47
2021/12/10 07:48:35;;;;;;;;;;;22.50;22.20;;;;;;5162319;27;20449;-49
2021/12/10 07:51:06;;;;;;;;;;;22.50;22.10;;;;;;5167905;27;20021;-47
2021/12/10 07:53:32;;;;;;;;;;;22.50;22.00;;;;;;5163282;27;20297;-48
2021/12/10 07:56:01;;;;;;;;;;;22.60;22.00;;;;;;5168333;27;19929;-45
2021/12/10 07:58:27;;;;;;;;;;;22.50;22.10;;;;;;5145557;27;19927;-46
2021/12/10 08:00:53;;;;;;;;;;;22.40;22.10;;;;;;5162483;27;19922;-49
2021/12/10 08:03:19;;;;;;;;;;;22.50;22.10;;;;;;5167968;27;19969;-50
2021/12/10 08:05:44;;;;;;;;;;;22.50;22.10;;;;;;5143950;27;19923;-48
2021/12/10 08:08:10;;;;;;;;;;;22.50;22.00;;;;;;5162147;27;19931;-49
2021/12/10 08:10:36;;;;;;;;;;;22.50;22.00;;;;;;5168080;27;19923;-48
2021/12/10 08:13:02;;;;;;;;;;;22.50;22.00;;;;;;5144221;27;19927;-47
2021/12/10 08:15:31;;;;;;;;;;;22.50;22.00;;;;;;5164538;27;20313;-54
2021/12/10 08:17:56;;;;;;;;;;;22.60;21.80;;;;;;5167539;27;19930;-47
2021/12/10 08:20:23;;;;;;;;;;;22.60;21.70;;;;;;5162142;27;19923;-47
2021/12/10 08:22:49;;;;;;;;;;;22.60;21.70;;;;;;5149268;27;19929;-48
2021/12/10 08:25:15;;;;;;;;;;;22.30;22.50;;;;;;5162259;27;19941;-48
2021/12/10 08:27:41;;;;;;;;;;;22.30;22.70;;;;;;5162104;27;20300;-51
2021/12/10 08:30:08;;;;;;;;;;;22.30;22.80;;;;;;5168332;27;19930;-48
2021/12/10 08:32:34;;;;;;;;;;;22.20;23.00;;;;;;5162507;27;20301;-49
2021/12/10 08:35:00;;;;;;;;;;;22.10;23.10;;;;;;5162252;27;19971;-48
2021/12/10 08:37:26;;;;;;;;;;;22.00;23.10;;;;;;5167333;27;19922;-48
2021/12/10 08:39:51;;;;;;;;;;;22.00;23.00;;;;;;5162108;27;20401;-47
2021/12/10 08:42:17;;;;;;;;;;;22.20;22.60;;;;;;5167281;27;20259;-49
2021/12/10 08:44:43;;;;;;;;;;;22.20;22.30;;;;;;5161901;27;19954;-50
2021/12/10 08:47:15;;;;;;;;;;;22.30;22.50;;;;;;5162344;27;19931;-51
2021/12/10 08:49:41;;;;;;;;;;;22.20;22.80;;;;;;5167744;27;19926;-51
2021/12/10 08:52:08;;;;;;;;;;;22.20;22.70;;;;;;5161963;27;20011;-49
2021/12/10 08:54:34;;;;;;;;;;;22.00;22.80;;;;;;5162054;27;19922;-50
2021/12/10 08:57:01;;;;;;;;;;;22.00;23.00;;;;;;5166705;27;21297;-50
2021/12/10 08:59:27;;;;;;;;;;;22.00;23.00;;;;;;5162182;27;19945;-48
2021/12/10 09:01:54;;;;;;;;;;;21.90;23.00;;;;;;5164814;27;19930;-53
2021/12/10 09:04:20;;;;;;;;;;;22.00;23.10;;;;;;5164869;27;19922;-47
2021/12/10 09:06:48;;;;;;;;;;;22.00;23.30;;;;;;5143867;27;19933;-50
2021/12/10 09:09:14;;;;;;;;;;;22.00;23.20;;;;;;5167362;27;19974;-47
2021/12/10 09:11:41;;;;;;;;;;;22.00;23.40;;;;;;5162209;27;19939;-54
2021/12/10 09:14:08;;;;;;;;;;;21.90;23.50;;;;;;5161868;27;20517;-50
2021/12/10 09:16:35;;;;;;;;;;;22.00;23.60;;;;;;5167087;27;19939;-50
2021/12/10 09:19:03;;;;;;;;;;;21.90;23.50;;;;;;5161366;27;19933;-51
2021/12/10 09:21:29;;;;;;;;;;;22.00;23.40;;;;;;5161322;27;19967;-49
2021/12/10 09:24:00;;;;;;;;;;;22.00;23.20;;;;;;5166703;27;20401;-48
2021/12/10 09:26:27;;;;;;;;;;;21.90;23.50;;;;;;5161674;27;19922;-47
2021/12/10 09:28:53;;;;;;;;;;;21.80;23.40;;;;;;5166530;27;19922;-50
2021/12/10 09:31:24;;;;;;;;;;;21.80;23.30;;;;;;5162020;27;19934;-50
2021/12/10 09:33:51;;;;;;;;;;;21.80;23.20;;;;;;5161483;27;19922;-48
2021/12/10 09:36:17;;;;;;;;;;;21.80;23.10;;;;;;5166678;27;19931;-46
2021/12/10 09:38:44;;;;;;;;;;;21.80;22.80;;;;;;5161111;27;20373;-46
2021/12/10 09:41:10;;;;;;;;;;;22.00;22.50;;;;;;5163611;27;19939;-45
2021/12/10 09:43:36;;;;;;;;;;;22.10;22.30;;;;;;5170690;27;20021;-47
2021/12/10 09:46:02;;;;;;;;;;;22.20;22.10;;;;;;5165056;27;19946;-45
2021/12/10 09:48:28;;;;;;;;;;;22.30;21.90;;;;;;5164839;27;19927;-49
2021/12/10 09:50:55;;;;;;;;;;;22.30;21.80;;;;;;5170497;27;19966;-48
2021/12/10 09:53:21;;;;;;;;;;;22.40;21.60;;;;;;5164607;27;19975;-46
2021/12/10 09:55:47;;;;;;;;;;;22.40;21.60;;;;;;5169940;27;19939;-46
2021/12/10 09:58:13;;;;;;;;;;;22.50;21.50;;;;;;5164251;27;19923;-47
2021/12/10 10:00:43;;;;;;;;;;;22.60;21.30;;;;;;5164474;27;19957;-48
2021/12/10 10:03:10;;;;;;;;;;;22.60;21.20;;;;;;5170683;27;19927;-46
2021/12/10 10:05:37;;;;;;;;;;;22.60;21.10;;;;;;5164749;27;20018;-45
2021/12/10 10:08:04;;;;;;;;;;;22.70;20.90;;;;;;5164697;27;20020;-46
2021/12/10 10:10:30;;;;;;;;;;;22.70;20.80;;;;;;5170050;27;19929;-46
2021/12/10 10:12:56;;;;;;;;;;;22.80;20.70;;;;;;5164480;27;19923;-53
2021/12/10 10:15:29;;;;;;;;;;;22.80;20.60;;;;;;5168687;27;20033;-55
2021/12/10 10:17:56;;;;;;;;;;;22.70;20.60;;;;;;5168437;27;19926;-50
2021/12/10 10:20:22;;;;;;;;;;;22.60;20.60;;;;;;5164341;27;19923;-51
2021/12/10 10:22:47;;;;;;;;;;;22.70;20.50;;;;;;5170007;27;19930;-49
2021/12/10 10:25:14;;;;;;;;;;;22.60;20.50;;;;;;5164343;27;20555;-49
2021/12/10 10:27:40;;;;;;;;;;;22.60;20.50;;;;;;5145594;27;19927;-46
2021/12/10 10:30:09;;;;;;;;;;;20.80;22.00;;;;;;5169470;27;20021;-47
2021/12/10 10:32:35;;;;;;;;;;;21.50;21.60;;;;;;5145381;27;19926;-46
2021/12/10 10:35:04;;;;;;;;;;;22.30;20.90;;;;;;5163713;27;20614;-48
2021/12/10 10:37:30;;;;;;;;;;;22.60;20.60;;;;;;5169156;27;20357;-47
2021/12/10 10:39:56;;;;;;;;;;;22.80;20.50;;;;;;5164284;27;19927;-52
2021/12/10 10:42:24;;;;;;;;;;;22.40;20.70;;;;;;5169637;27;19970;-47
2021/12/10 10:44:51;;;;;;;;;;;19.90;23.50;;;;;;5164139;27;19935;-46
2021/12/10 10:47:21;;;;;;;;;;;21.70;21.50;;;;;;5163869;27;19927;-49
2021/12/10 10:49:49;;;;;;;;;;;22.30;20.90;;;;;;5169217;27;19933;-48
2021/12/10 10:52:17;;;;;;;;;;;22.70;20.60;;;;;;5142272;27;19923;-46
2021/12/10 10:54:44;;;;;;;;;;;22.90;20.30;;;;;;5163457;27;19923;-49
2021/12/10 10:57:14;;;;;;;;;;;21.70;21.10;;;;;;5169421;27;20414;-47
2021/12/10 10:59:40;;;;;;;;;;;20.50;22.60;;;;;;5163883;27;19933;-49
2021/12/10 11:02:08;;;;;;;;;;;21.90;21.10;;;;;;5163634;27;20512;-51
2021/12/10 11:04:38;;;;;;;;;;;22.50;20.50;;;;;;5169301;27;20370;-51
2021/12/10 11:07:06;;;;;;;;;;;22.70;20.20;;;;;;5163427;27;20017;-50
2021/12/10 11:09:33;;;;;;;;;;;22.90;20.10;;;;;;5169066;27;19923;-53
2021/12/10 11:12:03;;;;;;;;;;;21.30;21.00;;;;;;5160853;27;19923;-50
2021/12/10 11:14:34;;;;;;;;;;;20.90;21.60;;;;;;5163244;27;19974;-51
2021/12/10 11:17:09;;;;;;;;;;;22.10;20.50;;;;;;5169290;27;19970;-50
2021/12/10 11:19:35;;;;;;;;;;;22.60;20.00;;;;;;5163466;27;19929;-51
2021/12/10 11:22:20;;;;;;;;;;;22.80;19.80;;;;;;5163587;27;20017;-48
2021/12/10 11:24:47;;;;;;;;;;;23.00;19.60;;;;;;5169457;27;19930;-45
2021/12/10 11:27:16;;;;;;;;;;;19.50;22.90;;;;;;5163344;27;20059;-54
2021/12/10 11:29:43;;;;;;;;;;;21.60;20.80;;;;;;5163065;27;19926;-52
2021/12/10 11:32:16;;;;;;;;;;;22.40;20.10;;;;;;5168027;27;21187;-51
2021/12/10 11:34:47;;;;;;;;;;;22.70;19.80;;;;;;5163497;27;19926;-49
2021/12/10 11:37:12;;;;;;;;;;;22.90;19.60;;;;;;5163796;27;19929;-49
2021/12/10 11:39:42;;;;;;;;;;;21.30;21.00;;;;;;5168964;27;19927;-47
2021/12/10 11:42:27;;;;;;;;;;;21.10;21.50;;;;;;5163158;27;19926;-49
2021/12/10 11:45:16;;;;;;;;;;;22.10;20.50;;;;;;5162699;27;20271;-51
2021/12/10 11:47:42;;;;;;;;;;;22.60;20.10;;;;;;5168285;27;19935;-48
2021/12/10 11:50:16;;;;;;;;;;;22.90;19.90;;;;;;5162898;27;20384;-49
2021/12/10 11:52:42;;;;;;;;;;;22.00;20.80;;;;;;5163394;27;19931;-48
2021/12/10 11:55:09;;;;;;;;;;;20.70;22.80;;;;;;5168554;27;19923;-52
2021/12/10 11:57:36;;;;;;;;;;;22.00;21.40;;;;;;5162879;27;20129;-52
2021/12/10 12:00:07;;;;;;;;;;;22.50;21.10;;;;;;5164005;27;19987;-56
2021/12/10 12:02:34;;;;;;;;;;;22.70;21.00;;;;;;5149238;27;20021;-49
2021/12/10 12:05:04;;;;;;;;;;;22.90;21.10;;;;;;5162931;27;19975;-52
2021/12/10 12:07:46;;;;;;;;;;;19.40;25.70;;;;;;5149278;27;19926;-55
2021/12/10 12:10:32;;;;;;;;;;;21.50;23.60;;;;;;5167135;27;19977;-53
2021/12/10 12:13:10;;;;;;;;;;;22.30;22.70;;;;;;5162973;27;20355;-51
2021/12/10 12:15:37;;;;;;;;;;;22.60;22.40;;;;;;5162630;27;19983;-49
2021/12/10 12:18:03;;;;;;;;;;;22.90;22.30;;;;;;5168010;27;19923;-52
2021/12/10 12:20:31;;;;;;;;;;;22.40;22.90;;;;;;5162865;27;19937;-47
2021/12/10 12:25:53;;;;;;;;;;;21.80;24.30;;;;;;5163588;27;19929;-47
2021/12/10 12:28:20;;;;;;;;;;;22.40;23.80;;;;;;5162078;27;19945;-44
2021/12/10 12:31:06;;;;;;;;;;;22.70;23.70;;;;;;5168074;27;20259;-46
2021/12/10 12:33:34;;;;;;;;;;;22.90;23.50;;;;;;5167903;27;19923;-55
2021/12/10 12:36:00;;;;;;;;;;;21.40;25.40;;;;;;5143383;27;20077;-54
2021/12/10 12:38:30;;;;;;;;;;;20.70;26.60;;;;;;5167340;27;19923;-56
2021/12/10 12:41:07;;;;;;;;;;;21.90;25.10;;;;;;5161948;27;20322;-55
2021/12/10 12:43:33;;;;;;;;;;;22.40;24.40;;;;;;5161817;27;19926;-53
2021/12/10 12:46:06;;;;;;;;;;;22.80;24.00;;;;;;5131222;27;20271;-52
2021/12/10 12:48:31;;;;;;;;;;;23.00;23.90;;;;;;5162125;27;20463;-53
2021/12/10 12:51:02;;;;;;;;;;;22.80;24.00;;;;;;5163310;27;19923;-48
2021/12/10 12:53:33;;;;;;;;;;;19.60;28.10;;;;;;5167259;27;19926;-50
2021/12/10 12:56:05;;;;;;;;;;;21.70;25.50;;;;;;5161803;27;20459;-51
2021/12/10 12:58:31;;;;;;;;;;;22.40;24.70;;;;;;5161553;27;19927;-51
2021/12/10 13:01:03;;;;;;;;;;;22.80;24.30;;;;;;5167384;27;19995;-55
2021/12/10 13:03:32;;;;;;;;;;;22.60;24.30;;;;;;5162180;27;19923;-49
2021/12/10 13:06:13;;;;;;;;;;;20.10;27.70;;;;;;5161589;27;20025;-46
2021/12/10 13:08:42;;;;;;;;;;;21.80;25.40;;;;;;5167589;27;19931;-48
2021/12/10 13:11:21;;;;;;;;;;;22.50;24.70;;;;;;5161680;27;20389;-48
2021/12/10 13:13:51;;;;;;;;;;;22.80;24.40;;;;;;5162085;27;20272;-55
2021/12/10 13:16:36;;;;;;;;;;;22.20;25.00;;;;;;5167054;27;19968;-51
2021/12/10 13:19:02;;;;;;;;;;;19.80;28.40;;;;;;5161097;27;19927;-48
2021/12/10 13:21:29;;;;;;;;;;;21.80;25.70;;;;;;5161217;27;20029;-48
2021/12/10 13:23:55;;;;;;;;;;;22.40;24.80;;;;;;5166622;27;20278;-57
2021/12/10 13:26:21;;;;;;;;;;;22.70;24.50;;;;;;5161939;27;19933;-54
2021/12/10 13:28:47;;;;;;;;;;;23.00;24.50;;;;;;5166861;27;19938;-55
2021/12/10 13:31:13;;;;;;;;;;;23.20;24.40;;;;;;5162213;27;20442;-51
2021/12/10 13:33:40;;;;;;;;;;;20.40;27.10;;;;;;5161354;27;19957;-50
2021/12/10 13:36:09;;;;;;;;;;;21.40;26.40;;;;;;5166550;27;20275;-49
2021/12/10 13:38:35;;;;;;;;;;;22.30;25.30;;;;;;5160839;27;19927;-51
2021/12/10 13:41:03;;;;;;;;;;;22.70;24.80;;;;;;5160713;27;20280;-49
2021/12/10 13:43:29;;;;;;;;;;;23.00;24.50;;;;;;5167180;27;19929;-55
2021/12/10 13:46:02;;;;;;;;;;;20.30;27.30;;;;;;5161525;27;19926;-54
2021/12/10 13:48:40;;;;;;;;;;;21.30;26.40;;;;;;5121550;27;20367;-57
2021/12/10 13:51:16;;;;;;;;;;;22.20;25.40;;;;;;5166467;27;19927;-56
2021/12/10 13:53:53;;;;;;;;;;;22.70;24.90;;;;;;5142239;27;20095;-56
2021/12/10 13:56:18;;;;;;;;;;;23.00;24.60;;;;;;5142319;27;19979;-54
2021/12/10 13:58:51;;;;;;;;;;;23.00;24.50;;;;;;5147530;27;19926;-55
2021/12/10 14:01:18;;;;;;;;;;;22.10;25.40;;;;;;5160634;27;20057;-53
2021/12/10 14:03:52;;;;;;;;;;;22.20;25.30;;;;;;5166189;27;19931;-55
2021/12/10 14:06:19;;;;;;;;;;;22.30;25.30;;;;;;5164993;27;19927;-50
2021/12/10 14:09:02;;;;;;;;;;;22.20;25.30;;;;;;5161031;27;19933;-53
2021/12/10 14:11:49;;;;;;;;;;;22.30;25.30;;;;;;5146766;27;19933;-58
2021/12/10 14:14:14;;;;;;;;;;;22.30;25.20;;;;;;5165802;27;19926;-51
2021/12/10 14:16:50;;;;;;;;;;;22.40;25.20;;;;;;5160412;27;20304;-51
2021/12/10 14:19:51;;;;;;;;;;;22.40;25.20;;;;;;5164011;27;19923;-54
2021/12/10 14:22:34;;;;;;;;;;;22.40;25.30;;;;;;5061060;28;20019;-49
2021/12/10 14:25:01;;;;;;;;;;;22.50;25.20;;;;;;5131841;27;19922;-51
2021/12/10 14:27:27;;;;;;;;;;;22.50;25.30;;;;;;5163441;27;20688;-50
2021/12/10 14:30:15;;;;;;;;;;;22.60;25.30;;;;;;5169472;27;20003;-52
2021/12/10 14:32:42;;;;;;;;;;;22.50;25.20;;;;;;5144973;27;19923;-52